Accord, New York
Current Conditions -  °F | °C
As of 2:54 AM on Thursday 29 Jan 2015 (Local Time) from KMGJ Reporting Station
Clear Clear  
Wind Chill: -1°   Ceiling: Unl
Heat Index: -1°   Visibility: 10mi
Dew Point: -6°   Wind: 0mph
Humidity: 79%   Direction: NA
Pressure: 30.3"   Gusts: NA
Location:  41.79°N, 74.23°W
Report Text: KMGJ 290754Z AUTO 00000KT 10SM CLR M18/M21 A3030 RMK AO2 SLPNO I1000 T11831211 TSNO $
Loading
Personal Weather Stations






























Interactive Weather Map New forecast layout! Learn more

10-Day Weather Forecast

Advertisements
Track Severe Weather on mobile